Gdf Suez North Sea — HPSQ — position and weather

sailwx.info

Track history (hours):
 
Tides and Currents Weather Stations Pressure Air Temp Water Temp Dewpoint Dewpoint Depression Visibility Wind Speed Wind Dir Waves Ship Positions

Gdf Suez North Sea

Last reported at 2014-Jul-24 13:32 UTC. Time now 2014-Aug-01 16:04 UTC.
Position N 33°39' E 132°19'.
Warning: this ship's position is 8 days out of date.

Length 190 m; draft 9.6 m.

Type: Ship. MMSI: 373341000.

Date/timePositionNaut miles runAvg speedWind from/ knotsBaromVisibWave heightAir tempDewpointWater temp
2014-Jul-24 13:32N 33°39' E 132°19'1212.3
2014-Jul-24 12:33N 33°47' E 132°29'1411.5
2014-Jul-24 11:20N 33°57' E 132°41'  
2014-Jul-20 00:31N 34°34' E 134°49'1111.0
2014-Jul-19 23:32N 34°38' E 135°01'7 7.2
2014-Jul-19 22:33N 34°35' E 135°09'9 9.0
2014-Jul-19 21:33N 34°27' E 135°05'1212.4
2014-Jul-19 20:33N 34°15' E 134°59'1010.4
2014-Jul-19 19:33N 34°05' E 134°60'8 7.9
2014-Jul-19 18:32N 33°57' E 134°59'  
Track history (hours):
 
Tides and Currents Weather Stations Pressure Air Temp Water Temp Dewpoint Dewpoint Depression Visibility Wind Speed Wind Dir Waves Ship Positions

Gdf Suez North Sea

Last reported at 2014-Jul-24 13:32 UTC. Time now 2014-Aug-01 16:05 UTC.
Position N 33°39' E 132°19'.
Warning: this ship's position is 8 days out of date.

Length 190 m; draft 9.6 m.

Type: Ship. MMSI: 373341000.

Date/timePositionNaut miles runAvg speedWind from/ knotsBaromVisibWave heightAir tempDewpointWater temp
2014-Jul-24 13:32N 33°39' E 132°19'1212.3
2014-Jul-24 12:33N 33°47' E 132°29'1411.5
2014-Jul-24 11:20N 33°57' E 132°41'  
2014-Jul-20 00:31N 34°34' E 134°49'1111.0
2014-Jul-19 23:32N 34°38' E 135°01'7 7.2
2014-Jul-19 22:33N 34°35' E 135°09'9 9.0
2014-Jul-19 21:33N 34°27' E 135°05'1212.4
2014-Jul-19 20:33N 34°15' E 134°59'1010.4
2014-Jul-19 19:33N 34°05' E 134°60'8 7.9
2014-Jul-19 18:32N 33°57' E 134°59'  

Dump ship's entire track history